Terminal Aerodrome Forecast
Issued by NWS

Home | Current Version | Previous Version | Text Only | Print | Product List | Glossary On
Versions: 1 2 3 4 5 6 7 8 9 10 11 12 13 14 15 16
000
FTUS46 KPDT 171700
TAFDLS
TAF
KDLS 171732Z 1718/1818 32005KT P6SM BKN150
     FM172100 32010KT P6SM SCT150 BKN200
     FM180300 30008KT P6SM BKN100 OVC150
     FM181200 30005KT P6SM OVC070=

USA.gov is the U.S. government's official web portal to all federal, state and local government web resources and services.